Terminal Aerodrome Forecast
Issued by NWS

Home | Current Version | Previous Version | Text Only | Print | Product List | Glossary On
Versions: 1 2 3 4 5 6 7 8 9 10 11 12 13 14 15 16 17 18 19 20 21 22
000
FTUS44 KEWX 210600 AAA
TAFSSF
TAF AMD
KSSF 210625Z 2106/2206 15010KT P6SM BKN020
     FM210800 15010KT P6SM BKN013
     FM211500 16013G21KT P6SM SCT040
     FM212200 14015G25KT P6SM SCT080=

USA.gov is the U.S. government's official web portal to all federal, state and local government web resources and services.